Time;durP1;ratioP1;P1;durP2;ratioP2;P2;SDS_P1;SDS_P2;PMS_P1;PMS_P2;Temp;Humidity;BMP_temperature;BMP_pressure;BME280_temperature;BME280_humidity;BME280_pressure;Samples;Min_cycle;Max_cycle;Signal;HPM_P1;HPM_P2
2023/03/14 00:00:56;;;;;;;98.87;44.03;;;;;;;3.68;76.47;94861.28;6214839;23;20169;-83
2023/03/14 00:03:22;;;;;;;99.90;44.80;;;;;;;3.66;76.14;94844.47;6214413;23;20162;-83
2023/03/14 00:05:51;;;;;;;98.80;44.87;;;;;;;3.72;76.81;94856.63;6214664;23;20172;-83
2023/03/14 00:08:18;;;;;;;87.63;39.13;;;;;;;3.70;76.02;94843.13;6214615;23;20174;-85
2023/03/14 00:10:44;;;;;;;89.93;41.93;;;;;;;3.63;76.05;94855.06;6214387;23;20586;-87
2023/03/14 00:13:12;;;;;;;100.93;42.77;;;;;;;3.59;75.99;94846.91;6214774;23;20181;-86
2023/03/14 00:15:39;;;;;;;89.73;42.13;;;;;;;3.61;76.70;94837.25;6214827;23;20179;-84
2023/03/14 00:18:06;;;;;;;101.00;45.17;;;;;;;3.51;76.41;94818.69;6216454;23;20190;-87
2023/03/14 00:20:33;;;;;;;104.97;46.47;;;;;;;3.62;77.52;94836.28;6213805;23;20163;-86
2023/03/14 00:23:02;;;;;;;104.57;46.67;;;;;;;3.45;77.93;94816.81;6215042;23;20166;-82
2023/03/14 00:25:29;;;;;;;103.80;46.67;;;;;;;3.36;77.75;94800.66;6214870;23;20170;-82
2023/03/14 00:27:56;;;;;;;98.70;44.80;;;;;;;3.41;78.04;94810.41;6214570;23;20166;-82
2023/03/14 00:30:22;;;;;;;107.40;44.97;;;;;;;3.38;78.83;94819.25;6214328;23;20189;-82
2023/03/14 00:32:49;;;;;;;95.93;44.30;;;;;;;3.45;78.90;94811.66;6214566;23;20553;-82
2023/03/14 00:35:16;;;;;;;87.47;38.83;;;;;;;3.49;76.86;94810.38;6218035;23;20241;-82
2023/03/14 00:37:43;;;;;;;77.60;37.27;;;;;;;3.42;76.28;94812.81;6213811;23;20190;-81
2023/03/14 00:40:12;;;;;;;72.60;33.03;;;;;;;3.48;75.97;94808.75;6214055;23;20167;-82
2023/03/14 00:42:39;;;;;;;75.17;32.73;;;;;;;3.42;75.55;94794.84;6213993;23;20187;-83
2023/03/14 00:45:08;;;;;;;76.57;31.77;;;;;;;3.49;74.95;94809.56;6213949;23;20163;-83
2023/03/14 00:47:35;;;;;;;73.43;33.63;;;;;;;3.55;75.68;94807.09;6214130;23;20163;-84
2023/03/14 00:50:02;;;;;;;71.47;33.63;;;;;;;3.45;75.53;94788.56;6213969;23;20166;-86
2023/03/14 00:52:29;;;;;;;64.63;29.83;;;;;;;3.57;74.71;94802.59;6214685;23;20177;-86
2023/03/14 00:54:56;;;;;;;50.17;24.63;;;;;;;3.51;73.44;94803.28;6219061;23;20222;-86
2023/03/14 00:57:24;;;;;;;51.77;24.63;;;;;;;3.48;72.82;94797.69;6214487;23;20163;-86
2023/03/14 00:59:52;;;;;;;45.27;23.33;;;;;;;3.52;72.90;94799.72;6214148;23;20198;-85
2023/03/14 01:02:19;;;;;;;57.07;26.00;;;;;;;3.48;74.93;94789.97;6213428;23;20170;-83
2023/03/14 01:04:48;;;;;;;55.50;25.27;;;;;;;3.47;75.15;94794.31;6213359;23;20170;-83
2023/03/14 01:07:15;;;;;;;56.27;26.83;;;;;;;3.42;75.52;94794.84;6212601;23;20681;-84
2023/03/14 01:09:42;;;;;;;56.97;27.53;;;;;;;3.36;75.23;94787.00;6213977;23;20166;-85
2023/03/14 01:12:09;;;;;;;48.50;24.50;;;;;;;3.38;74.49;94793.56;6215877;23;20186;-85
2023/03/14 01:14:37;;;;;;;55.97;27.53;;;;;;;3.35;75.32;94788.78;6214322;23;20176;-85
2023/03/14 01:17:04;;;;;;;60.00;26.33;;;;;;;3.26;74.88;94779.50;6214101;23;20168;-85
2023/03/14 01:19:31;;;;;;;50.10;25.87;;;;;;;3.23;74.93;94776.50;6214121;23;20244;-84
2023/03/14 01:21:58;;;;;;;53.60;24.60;;;;;;;3.15;76.01;94766.25;6213870;23;20170;-85
2023/03/14 01:24:24;;;;;;;51.30;23.70;;;;;;;3.11;76.06;94767.59;6214550;23;20168;-85
2023/03/14 01:26:51;;;;;;;40.40;21.80;;;;;;;3.15;75.38;94772.22;6214655;23;20555;-85
2023/03/14 01:29:18;;;;;;;45.13;23.77;;;;;;;3.13;76.30;94774.16;6214334;23;20162;-85
2023/03/14 01:31:46;;;;;;;38.87;20.10;;;;;;;3.12;75.16;94764.03;6218442;23;20170;-85
2023/03/14 01:34:13;;;;;;;29.07;15.83;;;;;;;3.15;73.63;94758.56;6214652;23;20170;-84
2023/03/14 01:36:40;;;;;;;35.17;17.93;;;;;;;3.19;73.25;94759.84;6214071;23;20162;-84
2023/03/14 01:39:08;;;;;;;32.00;17.83;;;;;;;3.14;73.16;94754.41;6217089;23;20190;-83
2023/03/14 01:41:35;;;;;;;32.60;17.57;;;;;;;3.24;72.54;94762.69;6230482;23;20174;-82
2023/03/14 01:44:02;;;;;;;41.93;20.13;;;;;;;3.07;73.34;94741.47;6218936;23;20163;-82
2023/03/14 01:46:37;;;;;;;40.03;20.10;;;;;;;3.08;74.17;94761.03;6216339;23;20166;-82
2023/03/14 01:49:17;;;;;;;43.67;20.07;;;;;;;3.03;74.71;94754.81;6221594;23;20162;-82
2023/03/14 01:51:50;;;;;;;39.23;20.20;;;;;;;2.95;74.55;94745.38;6214368;23;20173;-82
2023/03/14 01:54:22;;;;;;;35.13;18.90;;;;;;;2.94;74.29;94746.34;6214313;23;20158;-81
2023/03/14 01:56:53;;;;;;;43.03;17.40;;;;;;;2.91;72.81;94749.25;6214127;23;20877;-82
2023/03/14 01:59:20;;;;;;;31.00;15.90;;;;;;;2.95;72.12;94745.38;6213681;23;20205;-81
2023/03/14 02:01:50;;;;;;;27.93;16.23;;;;;;;2.98;72.61;94744.22;6213636;23;20169;-82
2023/03/14 02:04:20;;;;;;;27.63;16.17;;;;;;;2.95;72.15;94749.69;6212784;23;20558;-81
2023/03/14 02:06:53;;;;;;;33.50;17.37;;;;;;;2.96;72.42;94743.59;6216040;23;20201;-81
2023/03/14 02:09:21;;;;;;;38.80;18.40;;;;;;;2.97;72.97;94740.09;6214135;23;20601;-81
2023/03/14 02:11:50;;;;;;;32.23;17.93;;;;;;;3.05;72.56;94740.84;6213851;23;20216;-82
2023/03/14 02:14:28;;;;;;;34.17;18.80;;;;;;;3.04;71.56;94733.28;6213991;23;20614;-81
2023/03/14 02:16:55;;;;;;;40.33;17.40;;;;;;;2.90;71.40;94729.69;6213680;23;20157;-82
2023/03/14 02:19:33;;;;;;;35.67;18.60;;;;;;;2.84;72.45;94725.22;6212907;23;20186;-83
2023/03/14 02:22:07;;;;;;;35.47;19.67;;;;;;;2.75;74.58;94723.66;6212830;23;20654;-86
2023/03/14 02:24:39;;;;;;;35.50;18.93;;;;;;;2.68;75.16;94725.31;6215635;23;20502;-86
2023/03/14 02:27:12;;;;;;;31.67;18.03;;;;;;;2.56;74.99;94718.97;6213586;23;20630;-85
2023/03/14 02:29:46;;;;;;;32.97;19.50;;;;;;;2.63;74.69;94730.94;6213677;23;20154;-87
2023/03/14 02:32:15;;;;;;;39.17;19.17;;;;;;;2.61;74.90;94734.66;6213556;23;20157;-82
2023/03/14 02:34:46;;;;;;;39.73;20.83;;;;;;;2.48;75.59;94735.16;6213547;23;20220;-83
2023/03/14 02:37:14;;;;;;;33.23;18.83;;;;;;;2.45;75.49;94717.56;6214333;23;20213;-86
2023/03/14 02:39:45;;;;;;;31.80;18.53;;;;;;;2.62;75.05;94737.06;6218382;23;20190;-85
2023/03/14 02:42:14;;;;;;;35.23;18.97;;;;;;;2.54;76.12;94734.50;6214167;23;20158;-85
2023/03/14 02:44:51;;;;;;;42.80;21.90;;;;;;;2.45;76.37;94716.78;6214940;23;20486;-85
2023/03/14 02:47:21;;;;;;;42.23;21.13;;;;;;;2.60;76.54;94741.53;6215556;23;20157;-85
2023/03/14 02:49:48;;;;;;;47.30;22.50;;;;;;;2.56;76.79;94736.91;6215918;23;20162;-86
2023/03/14 02:52:15;;;;;;;46.67;21.93;;;;;;;2.60;76.63;94735.59;6216782;23;20170;-85
2023/03/14 02:54:42;;;;;;;40.73;19.70;;;;;;;2.52;75.57;94733.88;6215377;23;20562;-84
2023/03/14 02:57:08;;;;;;;37.93;20.33;;;;;;;2.38;76.41;94724.31;6220039;23;20177;-84
2023/03/14 02:59:37;;;;;;;39.23;20.80;;;;;;;2.41;76.17;94723.19;6214978;23;20205;-85
2023/03/14 03:02:03;;;;;;;39.53;19.90;;;;;;;2.44;76.08;94736.47;6215295;23;20178;-84
2023/03/14 03:04:30;;;;;;;39.03;20.03;;;;;;;2.50;76.23;94742.72;6214928;23;20170;-85
2023/03/14 03:06:57;;;;;;;45.30;21.33;;;;;;;2.54;75.67;94742.19;6215078;23;20166;-81
2023/03/14 03:09:24;;;;;;;41.93;22.13;;;;;;;2.47;74.61;94732.78;6215622;23;20162;-81
2023/03/14 03:11:51;;;;;;;49.13;23.80;;;;;;;2.46;75.04;94736.31;6215593;23;20512;-81
2023/03/14 03:14:18;;;;;;;52.27;26.00;;;;;;;2.31;75.59;94737.97;6218301;23;20162;-80
2023/03/14 03:16:46;;;;;;;53.00;24.53;;;;;;;2.41;75.93;94739.38;6215309;23;20165;-82
2023/03/14 03:19:13;;;;;;;51.10;23.43;;;;;;;2.49;76.21;94738.53;6214959;23;20661;-81
2023/03/14 03:21:40;;;;;;;45.87;22.57;;;;;;;2.45;76.46;94738.09;6215432;23;20244;-81
2023/03/14 03:24:07;;;;;;;38.87;20.67;;;;;;;2.46;76.88;94734.53;6215103;23;20170;-81
2023/03/14 03:26:34;;;;;;;40.00;19.70;;;;;;;2.50;76.91;94738.38;6215096;23;20190;-81
2023/03/14 03:29:01;;;;;;;31.10;17.67;;;;;;;2.50;76.05;94724.75;6214891;23;20166;-81
2023/03/14 03:31:28;;;;;;;36.27;19.10;;;;;;;2.46;76.49;94721.72;6215097;23;20166;-81
2023/03/14 03:33:57;;;;;;;43.77;21.23;;;;;;;2.57;77.47;94734.16;6219944;23;20166;-81
2023/03/14 03:36:25;;;;;;;40.17;21.33;;;;;;;2.37;77.41;94714.25;6213720;23;20174;-81
2023/03/14 03:38:52;;;;;;;38.33;19.60;;;;;;;2.38;76.85;94733.78;6213928;23;20190;-81
2023/03/14 03:41:19;;;;;;;40.03;18.67;;;;;;;2.23;77.13;94715.72;6214805;23;20219;-87
2023/03/14 03:43:45;;;;;;;34.60;20.60;;;;;;;2.29;77.54;94733.81;6215330;23;20170;-87
2023/03/14 03:46:12;;;;;;;45.17;20.33;;;;;;;2.33;77.47;94741.16;6215004;23;20265;-87
2023/03/14 03:48:40;;;;;;;42.70;20.80;;;;;;;2.29;76.18;94735.56;6215522;23;20166;-86
2023/03/14 03:51:08;;;;;;;35.73;18.97;;;;;;;2.28;76.49;94747.59;6220883;23;20170;-87
2023/03/14 03:53:35;;;;;;;35.00;18.93;;;;;;;2.21;76.17;94746.66;6216450;23;20166;-87
2023/03/14 03:56:02;;;;;;;29.73;18.13;;;;;;;2.22;75.58;94714.16;6213854;23;20178;-83
2023/03/14 03:58:29;;;;;;;36.50;20.17;;;;;;;2.34;75.17;94741.00;6214446;23;20194;-82
2023/03/14 04:00:56;;;;;;;46.63;25.33;;;;;;;2.37;74.53;94742.44;6215469;23;20166;-82
2023/03/14 04:03:23;;;;;;;57.67;30.13;;;;;;;2.33;74.63;94746.31;6214971;23;20158;-81
2023/03/14 04:06:00;;;;;;;50.53;25.10;;;;;;;2.21;74.66;94736.41;6214783;23;20173;-88
2023/03/14 04:08:28;;;;;;;50.70;25.67;;;;;;;2.14;75.72;94747.47;6215748;23;20241;-81
2023/03/14 04:10:56;;;;;;;71.80;29.70;;;;;;;2.13;77.08;94745.88;6220288;23;20166;-82
2023/03/14 04:13:23;;;;;;;63.67;31.47;;;;;;;1.96;78.33;94709.25;6214929;23;20177;-82
2023/03/14 04:15:50;;;;;;;62.80;31.33;;;;;;;2.06;79.58;94732.13;6225842;23;20185;-82
2023/03/14 04:18:17;;;;;;;57.50;29.87;;;;;;;2.13;79.22;94731.31;6229666;23;20170;-82
2023/03/14 04:20:44;;;;;;;56.27;29.97;;;;;;;2.14;78.92;94725.19;6218258;23;20251;-80
2023/03/14 04:23:11;;;;;;;49.97;25.53;;;;;;;2.11;78.60;94724.72;6215233;23;20169;-81
2023/03/14 04:25:39;;;;;;;43.97;23.53;;;;;;;2.04;76.49;94716.09;6215075;23;20170;-81
2023/03/14 04:28:06;;;;;;;42.90;23.27;;;;;;;2.00;77.00;94723.31;6215409;23;20170;-80
2023/03/14 04:30:34;;;;;;;44.60;23.57;;;;;;;2.02;78.41;94720.59;6214563;23;20159;-81
2023/03/14 04:33:01;;;;;;;39.00;21.13;;;;;;;1.85;77.76;94688.31;6214506;23;20166;-82
2023/03/14 04:35:28;;;;;;;37.83;19.20;;;;;;;1.95;76.44;94706.84;6215035;23;20169;-80
2023/03/14 04:37:54;;;;;;;39.97;19.37;;;;;;;2.01;76.67;94706.19;6214645;23;20229;-82
2023/03/14 04:40:21;;;;;;;33.93;17.93;;;;;;;1.99;76.95;94703.00;6215522;23;20187;-81
2023/03/14 04:42:49;;;;;;;38.73;19.37;;;;;;;2.03;77.07;94707.63;6223321;23;20166;-80
2023/03/14 04:45:16;;;;;;;40.20;19.27;;;;;;;2.01;77.94;94698.50;6220880;23;20705;-85
2023/03/14 04:47:43;;;;;;;44.67;19.23;;;;;;;1.90;78.88;94691.16;6225744;23;20162;-85
2023/03/14 04:50:11;;;;;;;52.13;21.43;;;;;;;1.90;79.68;94691.16;6230370;23;20218;-85
2023/03/14 04:52:38;;;;;;;48.63;20.67;;;;;;;1.86;80.61;94698.38;6228582;23;20241;-83
2023/03/14 04:55:06;;;;;;;48.07;20.80;;;;;;;1.91;80.22;94688.44;6228181;23;20246;-85
2023/03/14 04:57:33;;;;;;;53.90;21.87;;;;;;;1.77;80.81;94670.38;6229678;23;20225;-85
2023/03/14 05:00:06;;;;;;;45.00;22.47;;;;;;;1.87;81.20;94686.38;6226624;23;20205;-84
2023/03/14 05:02:33;;;;;;;39.37;21.77;;;;;;;1.86;80.93;94685.56;6228389;23;20158;-85
2023/03/14 05:04:59;;;;;;;43.87;21.37;;;;;;;1.86;80.35;94684.75;6226305;23;20173;-85
2023/03/14 05:07:27;;;;;;;46.40;22.47;;;;;;;1.79;80.71;94681.28;6226681;23;20235;-79
2023/03/14 05:09:56;;;;;;;42.60;21.00;;;;;;;1.88;80.99;94695.63;6225121;23;20159;-82
2023/03/14 05:12:23;;;;;;;42.23;22.77;;;;;;;1.93;80.60;94693.41;6225652;23;20168;-82
2023/03/14 05:14:50;;;;;;;52.57;22.37;;;;;;;1.89;80.93;94685.25;6225873;23;20520;-80
2023/03/14 05:17:18;;;;;;;58.27;23.27;;;;;;;1.92;80.38;94682.34;6226206;23;20173;-83
2023/03/14 05:19:45;;;;;;;49.67;22.60;;;;;;;1.93;80.15;94686.53;6227404;23;20196;-84
2023/03/14 05:22:12;;;;;;;50.00;24.63;;;;;;;2.05;79.96;94689.53;6219659;23;20169;-85
2023/03/14 05:24:39;;;;;;;52.17;24.13;;;;;;;2.01;80.07;94675.44;6221319;23;20166;-82
2023/03/14 05:27:06;;;;;;;44.13;23.63;;;;;;;2.09;80.03;94683.91;6214482;23;20167;-82
2023/03/14 05:29:33;;;;;;;55.13;26.60;;;;;;;2.20;80.18;94687.84;6213971;23;20163;-84
2023/03/14 05:32:00;;;;;;;48.70;26.93;;;;;;;2.20;80.36;94688.66;6214229;23;20170;-83
2023/03/14 05:34:28;;;;;;;69.77;33.20;;;;;;;2.24;79.96;94684.00;6214137;23;20167;-83
2023/03/14 05:36:56;;;;;;;62.43;28.53;;;;;;;2.33;79.62;94687.34;6213897;23;20170;-83
2023/03/14 05:39:23;;;;;;;57.53;26.03;;;;;;;2.32;79.67;94688.28;6214036;23;20221;-80
2023/03/14 05:41:50;;;;;;;51.07;25.17;;;;;;;2.34;79.72;94692.28;6213781;23;20170;-80
2023/03/14 05:44:17;;;;;;;50.53;26.60;;;;;;;2.48;79.95;94690.81;6214357;23;20170;-79
2023/03/14 05:46:44;;;;;;;60.53;29.20;;;;;;;2.60;79.31;94686.88;6214011;23;20170;-79
2023/03/14 05:49:11;;;;;;;62.23;30.83;;;;;;;2.57;78.75;94676.97;6215181;23;20170;-78
2023/03/14 05:51:39;;;;;;;67.53;31.77;;;;;;;2.71;77.34;94687.28;6213083;23;20657;-79
2023/03/14 05:54:06;;;;;;;62.60;30.93;;;;;;;2.72;76.89;94682.97;6213947;23;20166;-79
2023/03/14 05:56:36;;;;;;;58.13;26.93;;;;;;;2.77;75.70;94690.97;6213423;23;20170;-81
2023/03/14 05:59:03;;;;;;;37.27;21.03;;;;;;;2.83;74.73;94695.41;6212971;23;20197;-79
2023/03/14 06:01:30;;;;;;;36.57;18.20;;;;;;;2.88;73.66;94692.34;6213270;23;20874;-79
2023/03/14 06:03:57;;;;;;;27.17;13.67;;;;;;;2.83;73.75;94695.41;6212740;23;20246;-80
2023/03/14 06:06:23;;;;;;;28.33;13.50;;;;;;;2.90;72.49;94687.81;6210703;23;20169;-80
2023/03/14 06:08:52;;;;;;;21.63;12.73;;;;;;;2.90;72.69;94683.50;6211707;23;20570;-78
2023/03/14 06:11:18;;;;;;;24.77;13.27;;;;;;;2.96;72.13;94695.66;6212442;23;20684;-79
2023/03/14 06:13:48;;;;;;;26.70;12.37;;;;;;;3.02;70.75;94681.34;6212864;23;20173;-80
2023/03/14 06:16:15;;;;;;;27.47;13.30;;;;;;;3.02;70.88;94682.13;6215355;23;20543;-80
2023/03/14 06:18:42;;;;;;;19.80;12.60;;;;;;;3.11;69.89;94686.25;6214782;23;20178;-78
2023/03/14 06:21:09;;;;;;;20.17;12.37;;;;;;;3.09;70.07;94689.97;6215182;23;20194;-79
2023/03/14 06:23:36;;;;;;;21.47;12.07;;;;;;;3.11;69.53;94691.38;6215514;23;20170;-79
2023/03/14 06:26:04;;;;;;;25.03;13.10;;;;;;;3.16;69.46;94701.94;6215811;23;20170;-79
2023/03/14 06:28:31;;;;;;;22.13;13.60;;;;;;;3.22;69.36;94701.25;6215176;23;20535;-79
2023/03/14 06:30:59;;;;;;;19.30;12.33;;;;;;;3.25;69.21;94703.47;6214995;23;20167;-79
2023/03/14 06:33:26;;;;;;;29.27;12.93;;;;;;;3.29;69.10;94699.56;6215442;23;20185;-79
2023/03/14 06:35:53;;;;;;;23.77;13.93;;;;;;;3.44;66.99;94690.16;6214673;23;20170;-79
2023/03/14 06:38:20;;;;;;;31.93;15.03;;;;;;;3.40;66.62;94686.34;6217644;23;20201;-79
2023/03/14 06:40:47;;;;;;;26.47;14.37;;;;;;;3.47;66.45;94688.19;6216727;23;20670;-79
2023/03/14 06:43:15;;;;;;;29.53;16.17;;;;;;;3.52;67.65;94684.13;6215086;23;20174;-78
2023/03/14 06:45:42;;;;;;;27.07;14.07;;;;;;;3.58;66.68;94680.88;6215402;23;20512;-80
2023/03/14 06:48:08;;;;;;;27.20;15.00;;;;;;;3.68;64.96;94678.88;6215255;23;20182;-79
2023/03/14 06:50:35;;;;;;;27.63;15.10;;;;;;;3.75;64.70;94679.75;6214991;23;20168;-79
2023/03/14 06:53:02;;;;;;;25.47;14.37;;;;;;;3.70;63.60;94664.06;6214925;23;20623;-79
2023/03/14 06:55:29;;;;;;;30.17;14.90;;;;;;;3.71;64.73;94664.88;6215256;23;20170;-78
2023/03/14 06:57:55;;;;;;;28.37;15.60;;;;;;;3.72;65.29;94661.34;6214495;23;20173;-79
2023/03/14 07:00:24;;;;;;;31.03;15.97;;;;;;;3.82;65.23;94646.44;6214397;23;20529;-78
2023/03/14 07:02:51;;;;;;;30.90;17.77;;;;;;;3.85;64.77;94649.47;6215433;23;20170;-83
2023/03/14 07:05:18;;;;;;;36.13;17.73;;;;;;;3.93;65.01;94662.22;6215767;23;20175;-81
2023/03/14 07:07:45;;;;;;;29.13;16.83;;;;;;;3.98;65.05;94652.19;6215657;23;20178;-82
2023/03/14 07:10:12;;;;;;;29.27;16.90;;;;;;;3.95;65.42;94638.94;6223765;23;20168;-83
2023/03/14 07:12:38;;;;;;;32.73;17.07;;;;;;;3.98;65.53;94636.00;6215337;23;20167;-84
2023/03/14 07:15:06;;;;;;;36.07;18.77;;;;;;;4.11;66.21;94649.00;6215353;23;20166;-84
2023/03/14 07:17:34;;;;;;;28.77;17.43;;;;;;;4.26;66.38;94657.53;6215134;23;20206;-83
2023/03/14 07:20:04;;;;;;;37.53;17.97;;;;;;;4.37;65.08;94658.81;6214558;23;20205;-82
2023/03/14 07:22:30;;;;;;;31.70;18.33;;;;;;;4.44;64.11;94657.91;6214945;23;20192;-83
2023/03/14 07:24:57;;;;;;;39.50;18.80;;;;;;;4.39;65.99;94644.81;6215755;23;20160;-83
2023/03/14 07:27:24;;;;;;;40.77;19.83;;;;;;;4.52;65.67;94649.31;6214543;23;20168;-84
2023/03/14 07:29:51;;;;;;;41.10;19.77;;;;;;;4.56;64.01;94640.22;6214197;23;20591;-83
2023/03/14 07:32:18;;;;;;;33.13;19.37;;;;;;;4.70;64.29;94648.91;6214566;23;20195;-82
2023/03/14 07:34:46;;;;;;;34.30;18.07;;;;;;;4.76;64.27;94643.03;6215299;23;20168;-82
2023/03/14 07:37:13;;;;;;;36.63;19.07;;;;;;;4.84;62.81;94638.56;6219341;23;20173;-84
2023/03/14 07:39:39;;;;;;;38.03;19.10;;;;;;;4.84;63.96;94630.06;6214998;23;20192;-80
2023/03/14 07:42:06;;;;;;;37.07;18.33;;;;;;;4.96;62.56;94634.50;6211042;23;20238;-78
2023/03/14 07:44:33;;;;;;;35.67;19.13;;;;;;;5.04;61.91;94628.47;6212391;23;20169;-78
2023/03/14 07:47:00;;;;;;;34.77;18.37;;;;;;;5.07;60.94;94628.91;6212732;23;20622;-79
2023/03/14 07:49:27;;;;;;;34.07;17.43;;;;;;;5.17;60.26;94633.72;6213262;23;20192;-79
2023/03/14 07:51:55;;;;;;;35.20;18.83;;;;;;;5.24;59.58;94637.16;6213076;23;20695;-79
2023/03/14 07:54:23;;;;;;;38.43;17.10;;;;;;;5.27;59.34;94630.84;6214303;23;20179;-80
2023/03/14 07:56:50;;;;;;;31.47;17.57;;;;;;;5.38;58.41;94628.53;6216531;23;20625;-82
2023/03/14 07:59:17;;;;;;;30.33;18.20;;;;;;;5.46;58.67;94627.59;6214138;23;20201;-80
2023/03/14 08:01:43;;;;;;;35.77;17.73;;;;;;;5.48;58.46;94623.84;6213762;23;20197;-80
2023/03/14 08:04:10;;;;;;;29.73;16.80;;;;;;;5.53;58.24;94618.16;6214159;23;20173;-81
2023/03/14 08:06:37;;;;;;;33.23;18.33;;;;;;;5.55;58.42;94624.72;6214630;23;20180;-81
2023/03/14 08:09:05;;;;;;;39.23;19.03;;;;;;;5.68;58.53;94621.44;6214661;23;20170;-79
2023/03/14 08:11:32;;;;;;;41.43;19.37;;;;;;;5.69;58.40;94618.66;6212842;23;20699;-80
2023/03/14 08:13:59;;;;;;;36.17;18.50;;;;;;;5.76;57.09;94623.06;6214348;23;20181;-81
2023/03/14 08:16:26;;;;;;;41.50;19.37;;;;;;;5.81;57.38;94610.38;6213849;23;20167;-80
2023/03/14 08:18:53;;;;;;;35.03;19.07;;;;;;;5.90;57.58;94622.97;6213947;23;20515;-79
2023/03/14 08:21:20;;;;;;;36.83;18.10;;;;;;;5.99;56.08;94616.69;6213523;23;20205;-80
2023/03/14 08:23:46;;;;;;;37.63;19.20;;;;;;;6.02;56.86;94618.88;6214235;23;20174;-80
2023/03/14 08:26:15;;;;;;;35.53;19.80;;;;;;;6.09;56.18;94608.59;6213005;23;20166;-79
2023/03/14 08:28:42;;;;;;;35.47;20.07;;;;;;;6.20;56.47;94620.97;6212561;23;20174;-80
2023/03/14 08:31:09;;;;;;;39.50;18.83;;;;;;;6.34;55.86;94614.06;6213187;23;20632;-80
2023/03/14 08:33:36;;;;;;;39.10;19.20;;;;;;;6.48;55.53;94613.13;6213091;23;20253;-79
2023/03/14 08:36:03;;;;;;;34.87;19.40;;;;;;;6.61;54.78;94608.00;6213179;23;20174;-80
2023/03/14 08:38:29;;;;;;;41.20;19.03;;;;;;;6.72;54.23;94615.19;6213664;23;20174;-79
2023/03/14 08:40:57;;;;;;;29.63;18.03;;;;;;;6.72;53.43;94610.78;6213445;23;20195;-79
2023/03/14 08:43:26;;;;;;;31.30;16.70;;;;;;;6.81;53.05;94608.84;6213747;23;20170;-79
2023/03/14 08:45:52;;;;;;;31.97;16.57;;;;;;;6.97;52.48;94602.50;6215585;23;20236;-79
2023/03/14 08:48:19;;;;;;;32.37;16.77;;;;;;;7.14;51.60;94598.56;6213539;23;20170;-79
2023/03/14 08:50:46;;;;;;;31.10;15.87;;;;;;;7.30;50.73;94591.19;6213918;23;20174;-79
2023/03/14 08:53:13;;;;;;;21.57;14.50;;;;;;;7.57;49.03;94586.81;6212002;23;20889;-80
2023/03/14 08:55:40;;;;;;;28.70;14.90;;;;;;;7.67;49.22;94589.00;6212649;23;20167;-80
2023/03/14 08:58:06;;;;;;;26.60;12.97;;;;;;;7.75;49.89;94571.47;6213106;23;20645;-80
2023/03/14 09:00:35;;;;;;;23.67;13.73;;;;;;;8.00;48.42;94577.56;6213167;23;20175;-81
2023/03/14 09:03:01;;;;;;;27.53;12.40;;;;;;;8.27;47.25;94565.38;6214104;23;20182;-79
2023/03/14 09:05:28;;;;;;;20.63;12.13;;;;;;;8.52;46.54;94563.66;6214563;23;20166;-79
2023/03/14 09:07:55;;;;;;;18.77;11.83;;;;;;;8.67;45.79;94554.78;6215120;23;20174;-80
2023/03/14 09:10:22;;;;;;;20.87;11.40;;;;;;;8.94;45.23;94553.63;6214210;23;20185;-80
2023/03/14 09:12:48;;;;;;;22.33;11.60;;;;;;;9.19;44.84;94548.47;6214266;23;20174;-81
2023/03/14 09:15:15;;;;;;;18.03;11.57;;;;;;;9.53;44.65;94547.97;6213681;23;20171;-80
2023/03/14 09:17:45;;;;;;;16.60;10.10;;;;;;;9.93;42.67;94550.94;6221038;23;20174;-80
2023/03/14 09:20:14;;;;;;;17.17;9.87;;;;;;;10.10;40.83;94533.81;6222813;23;20235;-80
2023/03/14 09:22:40;;;;;;;14.73;9.40;;;;;;;10.41;40.30;94543.25;6214935;23;20166;-82
2023/03/14 09:25:08;;;;;;;16.43;9.67;;;;;;;10.57;40.21;94533.03;6215124;23;20173;-80
2023/03/14 09:27:35;;;;;;;17.47;8.90;;;;;;;10.86;39.64;94530.63;6214883;23;20170;-81
2023/03/14 09:30:02;;;;;;;13.70;9.37;;;;;;;11.10;38.85;94511.47;6219809;23;20170;-80
2023/03/14 09:32:29;;;;;;;20.97;9.70;;;;;;;11.21;38.83;94519.28;6215848;23;20174;-79
2023/03/14 09:34:57;;;;;;;18.83;9.60;;;;;;;11.55;39.33;94512.50;6214691;23;20170;-81
2023/03/14 09:37:24;;;;;;;16.87;9.60;;;;;;;11.75;38.01;94506.97;6214860;23;20166;-81
2023/03/14 09:39:51;;;;;;;13.40;8.83;;;;;;;11.96;37.18;94508.97;6214684;23;20162;-81
2023/03/14 09:42:21;;;;;;;17.23;9.10;;;;;;;12.27;37.06;94511.16;6214216;23;20700;-81
2023/03/14 09:44:55;;;;;;;13.37;8.80;;;;;;;12.67;36.01;94499.91;6214803;23;20174;-80
2023/03/14 09:47:24;;;;;;;13.47;8.73;;;;;;;12.83;35.68;94496.53;6214809;23;20177;-80
2023/03/14 09:49:51;;;;;;;14.03;8.13;;;;;;;13.01;34.95;94494.50;6214179;23;20170;-80
2023/03/14 09:52:24;;;;;;;14.73;9.43;;;;;;;13.29;35.33;94483.22;6213950;23;20169;-81
2023/03/14 09:54:54;;;;;;;14.83;9.50;;;;;;;13.57;34.89;94483.09;6213227;23;20165;-79
2023/03/14 09:57:25;;;;;;;16.67;9.07;;;;;;;13.81;33.73;94481.06;6216082;23;20529;-79
2023/03/14 09:59:54;;;;;;;16.90;8.53;;;;;;;13.95;34.16;94478.88;6213489;23;20198;-79
2023/03/14 10:02:23;;;;;;;14.03;8.97;;;;;;;14.18;34.14;94478.66;6213638;23;20256;-79
2023/03/14 10:04:52;;;;;;;13.30;8.20;;;;;;;14.30;33.38;94471.47;6213466;23;20630;-79
2023/03/14 10:07:26;;;;;;;12.20;7.97;;;;;;;14.42;33.29;94474.78;6213250;23;20168;-80
2023/03/14 10:09:53;;;;;;;16.27;9.17;;;;;;;14.35;32.67;94463.72;6213679;23;20161;-79
2023/03/14 10:12:23;;;;;;;13.93;8.00;;;;;;;14.76;33.14;94457.06;6213179;23;20177;-80
2023/03/14 10:14:53;;;;;;;17.07;7.90;;;;;;;15.10;33.27;94444.50;6214241;23;20169;-79
2023/03/14 10:17:21;;;;;;;16.07;8.67;;;;;;;15.28;31.55;94439.66;6213691;23;20614;-80
2023/03/14 10:19:53;;;;;;;12.87;7.80;;;;;;;15.45;31.33;94436.09;6215652;23;20166;-78
2023/03/14 10:22:23;;;;;;;11.87;7.20;;;;;;;15.66;31.06;94428.13;6213795;23;20232;-79
2023/03/14 10:24:54;;;;;;;13.83;6.77;;;;;;;15.97;30.30;94425.63;6214078;23;20154;-80
2023/03/14 10:27:22;;;;;;;16.30;7.23;;;;;;;16.07;29.42;94426.50;6213806;23;20162;-79
2023/03/14 10:29:55;;;;;;;17.27;6.57;;;;;;;16.40;29.29;94420.00;6213806;23;20224;-79
2023/03/14 10:32:28;;;;;;;8.80;6.07;;;;;;;16.74;28.64;94417.72;6213513;23;20154;-80
2023/03/14 10:35:20;;;;;;;9.73;6.13;;;;;;;16.72;28.30;94389.13;6214180;23;20162;-79
2023/03/14 10:37:56;;;;;;;9.90;6.10;;;;;;;16.97;28.09;94388.31;6213997;23;20213;-79
2023/03/14 10:40:29;;;;;;;10.47;6.23;;;;;;;17.09;28.06;94390.66;6218951;23;20162;-80
2023/03/14 10:42:56;;;;;;;9.23;6.40;;;;;;;17.18;28.28;94383.84;6213345;23;20266;-79
2023/03/14 10:45:42;;;;;;;8.93;6.17;;;;;;;17.45;28.48;94371.97;6213609;23;20178;-79
2023/03/14 10:48:23;;;;;;;10.83;6.37;;;;;;;17.76;28.16;94367.44;6214449;23;20212;-80
2023/03/14 10:50:56;;;;;;;14.43;7.30;;;;;;;18.08;27.75;94370.44;6213799;23;20162;-80
2023/03/14 10:53:25;;;;;;;12.87;7.13;;;;;;;18.21;27.49;94361.16;6212871;23;20220;-80
2023/03/14 10:55:52;;;;;;;11.30;7.63;;;;;;;18.13;27.76;94367.78;6213572;23;20217;-80
2023/03/14 10:58:27;;;;;;;10.20;7.77;;;;;;;18.38;28.02;94358.97;6213156;23;20264;-79
2023/03/14 11:01:04;;;;;;;11.63;8.20;;;;;;;18.16;27.65;94348.03;6212845;23;20512;-79
2023/03/14 11:03:35;;;;;;;14.50;7.70;;;;;;;18.03;28.11;94343.38;6218999;23;20477;-78
2023/03/14 11:06:12;;;;;;;18.27;8.33;;;;;;;18.29;28.40;94323.75;6214579;23;20159;-80
2023/03/14 11:08:51;;;;;;;13.57;8.20;;;;;;;18.76;28.64;94333.69;6214781;23;20501;-79
2023/03/14 11:11:22;;;;;;;19.20;8.95;;;;;;;18.97;28.94;94321.13;6215349;23;20151;-79
2023/03/14 11:14:02;;;;;;;15.98;8.15;;;;;;;18.93;28.42;94317.50;6215339;23;20155;-79
2023/03/14 11:16:40;;;;;;;14.75;8.02;;;;;;;18.80;27.95;94304.94;6214937;23;20625;-79
2023/03/14 11:19:38;;;;;;;16.23;7.65;;;;;;;18.76;28.80;94296.06;6216064;23;20155;-80
2023/03/14 11:22:15;;;;;;;13.80;7.20;;;;;;;19.09;29.16;94290.72;6153215;23;20208;-80
2023/03/14 11:24:53;;;;;;;13.60;7.00;;;;;;;19.05;29.00;94281.78;6218715;23;20162;-81
2023/03/14 11:27:24;;;;;;;10.35;6.43;;;;;;;19.50;28.48;94283.19;6215948;23;20188;-80
2023/03/14 11:29:56;;;;;;;13.68;6.72;;;;;;;20.02;28.32;94273.53;6215387;23;20567;-81